首页
METAR-TAF:

METAR-TAF

机场 :

比塞大, 突尼斯

纬度: 37-15N, 经度: 009-48E, 海拔: 5米

当前天气观测

该预报发布于18分钟前的10:00 UTC
风速3节,风向东南,在之间变化
温度 13°C
湿度 72%
气压 1021 hPa
能见度10公里或以上
1500米以下无云,无积雨云

METAR: DTTB 191000Z 14003KT 090V190 CAVOK 13/08 Q1021

时间: 11:18 (10:18 UTC)

预报

该预报发布于1小时和18分钟前的09:00 UTC
预报有效从19日的 10点(UTC)到 19日的 19点(UTC)
风速2节,风向多变
能見度: 8000
少量云层高于2000英尺
成为
从 19日的 10点(UTC)到 19日的 12点(UTC)
风速10节,风向东南
几率 40% :
短暂存在
从 19日的 17点(UTC)到 19日的 19点(UTC)
风速18节,风向东转东南,有时为30节阵风

TAF: DTTB 190900Z 1910/1919 VRB02KT 8000 FEW020 BECMG 1910/1912 14010KT PROB40 TEMPO 1917/1919 12018G30KT

超过4000个机场的气象观测和天气预报(METAR&TAF报告)。

可查询的气象台以黄色和红色小点在地图上表示。

将鼠标移到小点上方,可查看气象台名称。

然后点击查看天气观测和预报。

如需切换地图:点击带黑十字的绿色按钮放大地图;点击带横线的绿色按钮缩小地图;或者点击绿色箭头查看邻近地区的地图。


METAR-TAF: